sensor_id;sensor_type;location;lat;lon;timestamp;P1;durP1;ratioP1;P2;durP2;ratioP2
4430;SDS011;2228;48.140;11.488;2022-08-01T00:01:51;2.88;;;2.17;;
4430;SDS011;2228;48.140;11.488;2022-08-01T00:04:18;2.60;;;1.83;;
4430;SDS011;2228;48.140;11.488;2022-08-01T00:06:45;3.00;;;2.20;;
4430;SDS011;2228;48.140;11.488;2022-08-01T00:09:12;3.85;;;2.45;;
4430;SDS011;2228;48.140;11.488;2022-08-01T00:11:38;2.80;;;2.30;;
4430;SDS011;2228;48.140;11.488;2022-08-01T00:14:07;16.95;;;2.50;;
4430;SDS011;2228;48.140;11.488;2022-08-01T00:16:34;3.20;;;2.20;;
4430;SDS011;2228;48.140;11.488;2022-08-01T00:19:02;4.80;;;2.00;;
4430;SDS011;2228;48.140;11.488;2022-08-01T00:21:29;5.10;;;2.00;;
4430;SDS011;2228;48.140;11.488;2022-08-01T00:23:56;2.25;;;2.03;;
4430;SDS011;2228;48.140;11.488;2022-08-01T00:26:24;3.33;;;2.10;;
4430;SDS011;2228;48.140;11.488;2022-08-01T00:28:51;4.43;;;2.00;;
4430;SDS011;2228;48.140;11.488;2022-08-01T00:31:18;3.40;;;2.00;;
4430;SDS011;2228;48.140;11.488;2022-08-01T00:33:44;4.10;;;2.10;;
4430;SDS011;2228;48.140;11.488;2022-08-01T00:36:12;3.50;;;2.00;;
4430;SDS011;2228;48.140;11.488;2022-08-01T00:38:39;2.80;;;2.10;;
4430;SDS011;2228;48.140;11.488;2022-08-01T00:41:06;3.78;;;2.13;;
4430;SDS011;2228;48.140;11.488;2022-08-01T00:43:33;2.97;;;2.10;;
4430;SDS011;2228;48.140;11.488;2022-08-01T00:46:00;4.63;;;2.10;;
4430;SDS011;2228;48.140;11.488;2022-08-01T00:48:27;3.75;;;2.40;;
4430;SDS011;2228;48.140;11.488;2022-08-01T00:50:54;3.30;;;2.00;;
4430;SDS011;2228;48.140;11.488;2022-08-01T00:53:22;2.60;;;1.77;;
4430;SDS011;2228;48.140;11.488;2022-08-01T00:55:50;9.98;;;2.40;;
4430;SDS011;2228;48.140;11.488;2022-08-01T00:58:17;3.20;;;1.88;;
4430;SDS011;2228;48.140;11.488;2022-08-01T01:00:44;3.10;;;2.03;;
4430;SDS011;2228;48.140;11.488;2022-08-01T01:03:10;3.17;;;2.25;;
4430;SDS011;2228;48.140;11.488;2022-08-01T01:05:39;2.83;;;2.10;;
4430;SDS011;2228;48.140;11.488;2022-08-01T01:08:16;4.38;;;2.10;;
4430;SDS011;2228;48.140;11.488;2022-08-01T01:10:51;5.90;;;1.98;;
4430;SDS011;2228;48.140;11.488;2022-08-01T01:13:23;2.97;;;1.90;;
4430;SDS011;2228;48.140;11.488;2022-08-01T01:15:59;2.22;;;1.88;;
4430;SDS011;2228;48.140;11.488;2022-08-01T01:18:32;4.30;;;2.20;;
4430;SDS011;2228;48.140;11.488;2022-08-01T01:21:03;3.30;;;2.20;;
4430;SDS011;2228;48.140;11.488;2022-08-01T01:23:44;5.43;;;2.78;;
4430;SDS011;2228;48.140;11.488;2022-08-01T01:26:31;2.08;;;1.88;;
4430;SDS011;2228;48.140;11.488;2022-08-01T01:29:08;5.28;;;2.40;;
4430;SDS011;2228;48.140;11.488;2022-08-01T01:31:41;3.85;;;2.10;;
4430;SDS011;2228;48.140;11.488;2022-08-01T01:34:12;5.67;;;2.13;;
4430;SDS011;2228;48.140;11.488;2022-08-01T01:36:41;3.40;;;2.25;;
4430;SDS011;2228;48.140;11.488;2022-08-01T01:39:11;2.92;;;2.30;;
4430;SDS011;2228;48.140;11.488;2022-08-01T01:41:39;3.38;;;2.20;;
4430;SDS011;2228;48.140;11.488;2022-08-01T01:44:09;3.60;;;2.63;;
4430;SDS011;2228;48.140;11.488;2022-08-01T01:46:38;3.30;;;2.30;;
4430;SDS011;2228;48.140;11.488;2022-08-01T01:49:06;2.40;;;2.20;;
4430;SDS011;2228;48.140;11.488;2022-08-01T01:51:35;3.00;;;2.33;;
4430;SDS011;2228;48.140;11.488;2022-08-01T01:54:04;2.67;;;2.10;;
4430;SDS011;2228;48.140;11.488;2022-08-01T01:56:33;4.07;;;2.10;;
4430;SDS011;2228;48.140;11.488;2022-08-01T01:59:01;3.08;;;2.25;;
4430;SDS011;2228;48.140;11.488;2022-08-01T02:01:31;3.17;;;2.40;;
4430;SDS011;2228;48.140;11.488;2022-08-01T02:04:00;2.85;;;2.28;;
4430;SDS011;2228;48.140;11.488;2022-08-01T02:06:28;3.20;;;2.20;;
4430;SDS011;2228;48.140;11.488;2022-08-01T02:08:57;3.35;;;2.05;;
4430;SDS011;2228;48.140;11.488;2022-08-01T02:11:27;3.08;;;2.13;;
4430;SDS011;2228;48.140;11.488;2022-08-01T02:13:55;2.50;;;2.30;;
4430;SDS011;2228;48.140;11.488;2022-08-01T02:16:26;3.03;;;2.25;;
4430;SDS011;2228;48.140;11.488;2022-08-01T02:18:56;3.13;;;2.10;;
4430;SDS011;2228;48.140;11.488;2022-08-01T02:21:25;2.80;;;1.97;;
4430;SDS011;2228;48.140;11.488;2022-08-01T02:23:54;3.97;;;2.10;;
4430;SDS011;2228;48.140;11.488;2022-08-01T02:26:26;3.97;;;2.20;;
4430;SDS011;2228;48.140;11.488;2022-08-01T02:28:56;4.45;;;2.28;;
4430;SDS011;2228;48.140;11.488;2022-08-01T02:31:26;3.30;;;2.13;;
4430;SDS011;2228;48.140;11.488;2022-08-01T02:33:56;2.50;;;2.00;;
4430;SDS011;2228;48.140;11.488;2022-08-01T02:36:28;2.38;;;2.00;;
4430;SDS011;2228;48.140;11.488;2022-08-01T02:38:56;4.53;;;2.28;;
4430;SDS011;2228;48.140;11.488;2022-08-01T02:41:24;4.50;;;2.00;;
4430;SDS011;2228;48.140;11.488;2022-08-01T02:43:55;4.10;;;2.55;;
4430;SDS011;2228;48.140;11.488;2022-08-01T02:46:28;5.03;;;2.30;;
4430;SDS011;2228;48.140;11.488;2022-08-01T02:49:01;4.22;;;2.10;;
4430;SDS011;2228;48.140;11.488;2022-08-01T02:51:30;3.92;;;2.42;;
4430;SDS011;2228;48.140;11.488;2022-08-01T02:53:57;2.72;;;2.40;;
4430;SDS011;2228;48.140;11.488;2022-08-01T02:56:26;3.20;;;2.08;;
4430;SDS011;2228;48.140;11.488;2022-08-01T02:59:00;3.75;;;2.35;;
4430;SDS011;2228;48.140;11.488;2022-08-01T03:01:30;4.93;;;2.10;;
4430;SDS011;2228;48.140;11.488;2022-08-01T03:03:57;4.82;;;2.30;;
4430;SDS011;2228;48.140;11.488;2022-08-01T03:06:27;3.60;;;2.30;;
4430;SDS011;2228;48.140;11.488;2022-08-01T03:08:55;3.80;;;2.50;;
4430;SDS011;2228;48.140;11.488;2022-08-01T03:11:23;2.90;;;2.10;;
4430;SDS011;2228;48.140;11.488;2022-08-01T03:13:51;3.67;;;1.90;;
4430;SDS011;2228;48.140;11.488;2022-08-01T03:16:19;2.90;;;2.10;;
4430;SDS011;2228;48.140;11.488;2022-08-01T03:18:48;2.50;;;2.30;;
4430;SDS011;2228;48.140;11.488;2022-08-01T03:21:15;2.75;;;2.55;;
4430;SDS011;2228;48.140;11.488;2022-08-01T03:23:46;3.70;;;2.70;;
4430;SDS011;2228;48.140;11.488;2022-08-01T03:26:16;2.88;;;2.10;;
4430;SDS011;2228;48.140;11.488;2022-08-01T03:28:44;4.35;;;2.22;;
4430;SDS011;2228;48.140;11.488;2022-08-01T03:31:14;2.70;;;2.30;;
4430;SDS011;2228;48.140;11.488;2022-08-01T03:33:42;2.50;;;2.30;;
4430;SDS011;2228;48.140;11.488;2022-08-01T03:36:09;3.05;;;2.63;;
4430;SDS011;2228;48.140;11.488;2022-08-01T03:38:39;4.50;;;2.17;;
4430;SDS011;2228;48.140;11.488;2022-08-01T03:41:08;3.38;;;2.10;;
4430;SDS011;2228;48.140;11.488;2022-08-01T03:43:40;3.00;;;2.45;;
4430;SDS011;2228;48.140;11.488;2022-08-01T03:46:13;2.33;;;2.00;;
4430;SDS011;2228;48.140;11.488;2022-08-01T03:48:47;5.60;;;2.40;;
4430;SDS011;2228;48.140;11.488;2022-08-01T03:51:15;2.45;;;2.17;;
4430;SDS011;2228;48.140;11.488;2022-08-01T03:53:43;3.10;;;2.20;;
4430;SDS011;2228;48.140;11.488;2022-08-01T03:56:13;2.40;;;2.10;;
4430;SDS011;2228;48.140;11.488;2022-08-01T03:58:45;4.20;;;2.40;;
4430;SDS011;2228;48.140;11.488;2022-08-01T04:01:12;3.65;;;2.50;;
4430;SDS011;2228;48.140;11.488;2022-08-01T04:03:40;6.05;;;2.50;;
4430;SDS011;2228;48.140;11.488;2022-08-01T04:06:08;3.58;;;2.70;;
4430;SDS011;2228;48.140;11.488;2022-08-01T04:08:35;3.85;;;2.45;;
4430;SDS011;2228;48.140;11.488;2022-08-01T04:11:03;4.45;;;2.42;;
4430;SDS011;2228;48.140;11.488;2022-08-01T04:13:31;5.28;;;2.60;;
4430;SDS011;2228;48.140;11.488;2022-08-01T04:15:59;4.38;;;2.30;;
4430;SDS011;2228;48.140;11.488;2022-08-01T04:18:26;3.60;;;2.20;;
4430;SDS011;2228;48.140;11.488;2022-08-01T04:20:53;4.13;;;2.60;;
4430;SDS011;2228;48.140;11.488;2022-08-01T04:23:21;4.10;;;2.80;;
4430;SDS011;2228;48.140;11.488;2022-08-01T04:25:50;3.17;;;2.45;;
4430;SDS011;2228;48.140;11.488;2022-08-01T04:28:18;4.20;;;2.30;;
4430;SDS011;2228;48.140;11.488;2022-08-01T04:30:49;3.65;;;2.50;;
4430;SDS011;2228;48.140;11.488;2022-08-01T04:33:18;3.20;;;2.20;;
4430;SDS011;2228;48.140;11.488;2022-08-01T04:35:46;3.78;;;2.40;;
4430;SDS011;2228;48.140;11.488;2022-08-01T04:38:15;2.90;;;2.42;;
4430;SDS011;2228;48.140;11.488;2022-08-01T04:40:47;3.60;;;2.40;;
4430;SDS011;2228;48.140;11.488;2022-08-01T04:43:16;6.30;;;2.80;;
4430;SDS011;2228;48.140;11.488;2022-08-01T04:45:43;4.07;;;2.80;;
4430;SDS011;2228;48.140;11.488;2022-08-01T04:48:14;4.15;;;2.15;;
4430;SDS011;2228;48.140;11.488;2022-08-01T04:50:42;4.45;;;2.20;;
4430;SDS011;2228;48.140;11.488;2022-08-01T04:53:12;2.15;;;1.95;;
4430;SDS011;2228;48.140;11.488;2022-08-01T04:55:39;3.63;;;2.50;;
4430;SDS011;2228;48.140;11.488;2022-08-01T04:58:06;4.78;;;2.50;;
4430;SDS011;2228;48.140;11.488;2022-08-01T05:00:35;4.80;;;2.20;;
4430;SDS011;2228;48.140;11.488;2022-08-01T05:03:02;4.65;;;2.30;;
4430;SDS011;2228;48.140;11.488;2022-08-01T05:05:30;4.95;;;2.45;;
4430;SDS011;2228;48.140;11.488;2022-08-01T05:07:57;4.05;;;2.30;;
4430;SDS011;2228;48.140;11.488;2022-08-01T05:10:25;2.90;;;2.13;;
4430;SDS011;2228;48.140;11.488;2022-08-01T05:12:52;2.80;;;2.50;;
4430;SDS011;2228;48.140;11.488;2022-08-01T05:15:19;2.47;;;2.10;;
4430;SDS011;2228;48.140;11.488;2022-08-01T05:17:46;3.70;;;2.50;;
4430;SDS011;2228;48.140;11.488;2022-08-01T05:20:13;3.47;;;2.20;;
4430;SDS011;2228;48.140;11.488;2022-08-01T05:22:41;5.22;;;2.17;;
4430;SDS011;2228;48.140;11.488;2022-08-01T05:25:08;3.03;;;2.40;;
4430;SDS011;2228;48.140;11.488;2022-08-01T05:27:35;3.43;;;2.27;;
4430;SDS011;2228;48.140;11.488;2022-08-01T05:30:05;3.00;;;2.30;;
4430;SDS011;2228;48.140;11.488;2022-08-01T05:32:33;2.60;;;1.85;;
4430;SDS011;2228;48.140;11.488;2022-08-01T05:34:59;3.42;;;2.15;;
4430;SDS011;2228;48.140;11.488;2022-08-01T05:37:26;3.03;;;2.25;;
4430;SDS011;2228;48.140;11.488;2022-08-01T05:39:54;5.45;;;2.70;;
4430;SDS011;2228;48.140;11.488;2022-08-01T05:42:21;3.42;;;2.00;;
4430;SDS011;2228;48.140;11.488;2022-08-01T05:44:48;2.80;;;2.30;;
4430;SDS011;2228;48.140;11.488;2022-08-01T05:47:15;4.30;;;2.30;;
4430;SDS011;2228;48.140;11.488;2022-08-01T05:49:42;3.65;;;2.42;;
4430;SDS011;2228;48.140;11.488;2022-08-01T05:52:09;3.03;;;2.70;;
4430;SDS011;2228;48.140;11.488;2022-08-01T05:54:36;6.90;;;2.70;;
4430;SDS011;2228;48.140;11.488;2022-08-01T05:57:05;2.58;;;2.38;;
4430;SDS011;2228;48.140;11.488;2022-08-01T05:59:31;3.28;;;2.60;;
4430;SDS011;2228;48.140;11.488;2022-08-01T06:01:58;4.17;;;2.43;;
4430;SDS011;2228;48.140;11.488;2022-08-01T06:04:26;5.95;;;2.35;;
4430;SDS011;2228;48.140;11.488;2022-08-01T06:06:53;4.10;;;2.30;;
4430;SDS011;2228;48.140;11.488;2022-08-01T06:09:20;3.70;;;2.58;;
4430;SDS011;2228;48.140;11.488;2022-08-01T06:11:47;4.45;;;2.25;;
4430;SDS011;2228;48.140;11.488;2022-08-01T06:14:17;2.72;;;2.20;;
4430;SDS011;2228;48.140;11.488;2022-08-01T06:16:43;2.53;;;2.30;;
4430;SDS011;2228;48.140;11.488;2022-08-01T06:19:10;4.50;;;2.60;;
4430;SDS011;2228;48.140;11.488;2022-08-01T06:21:37;3.47;;;2.07;;
4430;SDS011;2228;48.140;11.488;2022-08-01T06:24:04;4.40;;;2.40;;
4430;SDS011;2228;48.140;11.488;2022-08-01T06:26:31;3.38;;;2.60;;
4430;SDS011;2228;48.140;11.488;2022-08-01T06:28:58;3.80;;;2.10;;
4430;SDS011;2228;48.140;11.488;2022-08-01T06:31:27;5.28;;;2.40;;
4430;SDS011;2228;48.140;11.488;2022-08-01T06:33:56;3.13;;;2.20;;
4430;SDS011;2228;48.140;11.488;2022-08-01T06:36:23;2.45;;;1.92;;
4430;SDS011;2228;48.140;11.488;2022-08-01T06:38:50;2.95;;;2.40;;
4430;SDS011;2228;48.140;11.488;2022-08-01T06:41:17;3.03;;;2.00;;
4430;SDS011;2228;48.140;11.488;2022-08-01T06:43:44;3.50;;;2.60;;
4430;SDS011;2228;48.140;11.488;2022-08-01T06:46:11;3.67;;;2.40;;
4430;SDS011;2228;48.140;11.488;2022-08-01T06:48:39;3.08;;;2.53;;
4430;SDS011;2228;48.140;11.488;2022-08-01T06:51:07;3.20;;;2.60;;
4430;SDS011;2228;48.140;11.488;2022-08-01T06:53:34;3.95;;;2.60;;
4430;SDS011;2228;48.140;11.488;2022-08-01T06:56:02;4.78;;;2.35;;
4430;SDS011;2228;48.140;11.488;2022-08-01T06:58:30;3.90;;;2.67;;
4430;SDS011;2228;48.140;11.488;2022-08-01T07:00:57;5.90;;;2.30;;
4430;SDS011;2228;48.140;11.488;2022-08-01T07:03:24;4.10;;;2.60;;
4430;SDS011;2228;48.140;11.488;2022-08-01T07:05:52;3.47;;;2.60;;
4430;SDS011;2228;48.140;11.488;2022-08-01T07:08:19;5.32;;;2.60;;
4430;SDS011;2228;48.140;11.488;2022-08-01T07:10:46;4.22;;;2.30;;
4430;SDS011;2228;48.140;11.488;2022-08-01T07:13:13;3.38;;;2.72;;
4430;SDS011;2228;48.140;11.488;2022-08-01T07:15:45;5.50;;;2.90;;
4430;SDS011;2228;48.140;11.488;2022-08-01T07:18:12;4.77;;;2.60;;
4430;SDS011;2228;48.140;11.488;2022-08-01T07:20:39;5.10;;;2.40;;
4430;SDS011;2228;48.140;11.488;2022-08-01T07:23:07;6.95;;;2.50;;
4430;SDS011;2228;48.140;11.488;2022-08-01T07:25:34;3.22;;;2.63;;
4430;SDS011;2228;48.140;11.488;2022-08-01T07:28:00;3.80;;;2.90;;
4430;SDS011;2228;48.140;11.488;2022-08-01T07:30:27;4.78;;;2.90;;
4430;SDS011;2228;48.140;11.488;2022-08-01T07:32:54;5.30;;;2.60;;
4430;SDS011;2228;48.140;11.488;2022-08-01T07:35:21;2.55;;;2.35;;
4430;SDS011;2228;48.140;11.488;2022-08-01T07:37:48;6.03;;;2.65;;
4430;SDS011;2228;48.140;11.488;2022-08-01T07:40:17;3.83;;;2.33;;
4430;SDS011;2228;48.140;11.488;2022-08-01T07:42:45;4.50;;;2.80;;
4430;SDS011;2228;48.140;11.488;2022-08-01T07:45:12;4.07;;;2.70;;
4430;SDS011;2228;48.140;11.488;2022-08-01T07:47:39;4.15;;;2.25;;
4430;SDS011;2228;48.140;11.488;2022-08-01T07:50:06;5.50;;;3.20;;
4430;SDS011;2228;48.140;11.488;2022-08-01T07:52:34;3.15;;;2.50;;
4430;SDS011;2228;48.140;11.488;2022-08-01T07:55:01;2.97;;;2.58;;
4430;SDS011;2228;48.140;11.488;2022-08-01T07:57:29;4.15;;;2.20;;
4430;SDS011;2228;48.140;11.488;2022-08-01T07:59:56;3.05;;;2.30;;
4430;SDS011;2228;48.140;11.488;2022-08-01T08:02:23;3.72;;;2.50;;
4430;SDS011;2228;48.140;11.488;2022-08-01T08:04:49;2.85;;;2.65;;
4430;SDS011;2228;48.140;11.488;2022-08-01T08:07:16;5.23;;;2.30;;
4430;SDS011;2228;48.140;11.488;2022-08-01T08:09:43;3.60;;;2.60;;
4430;SDS011;2228;48.140;11.488;2022-08-01T08:12:10;9.52;;;2.90;;
4430;SDS011;2228;48.140;11.488;2022-08-01T08:14:38;2.80;;;2.20;;
4430;SDS011;2228;48.140;11.488;2022-08-01T08:17:05;3.00;;;2.30;;
4430;SDS011;2228;48.140;11.488;2022-08-01T08:19:33;2.50;;;2.30;;
4430;SDS011;2228;48.140;11.488;2022-08-01T08:22:02;6.80;;;2.73;;
4430;SDS011;2228;48.140;11.488;2022-08-01T08:24:29;2.72;;;2.50;;
4430;SDS011;2228;48.140;11.488;2022-08-01T08:26:56;3.13;;;2.50;;
4430;SDS011;2228;48.140;11.488;2022-08-01T08:29:25;3.83;;;2.50;;
4430;SDS011;2228;48.140;11.488;2022-08-01T08:31:56;2.53;;;2.33;;
4430;SDS011;2228;48.140;11.488;2022-08-01T08:34:23;4.47;;;2.40;;
4430;SDS011;2228;48.140;11.488;2022-08-01T08:36:50;2.60;;;2.40;;
4430;SDS011;2228;48.140;11.488;2022-08-01T08:39:18;3.67;;;2.40;;
4430;SDS011;2228;48.140;11.488;2022-08-01T08:41:45;4.63;;;2.60;;
4430;SDS011;2228;48.140;11.488;2022-08-01T08:44:12;4.43;;;3.22;;
4430;SDS011;2228;48.140;11.488;2022-08-01T08:46:42;3.88;;;2.50;;
4430;SDS011;2228;48.140;11.488;2022-08-01T08:49:12;3.13;;;2.80;;
4430;SDS011;2228;48.140;11.488;2022-08-01T08:51:42;4.60;;;2.60;;
4430;SDS011;2228;48.140;11.488;2022-08-01T08:54:10;4.20;;;2.47;;
4430;SDS011;2228;48.140;11.488;2022-08-01T08:56:38;2.50;;;2.30;;
4430;SDS011;2228;48.140;11.488;2022-08-01T08:59:06;2.50;;;2.30;;
4430;SDS011;2228;48.140;11.488;2022-08-01T09:01:33;2.63;;;2.25;;
4430;SDS011;2228;48.140;11.488;2022-08-01T09:04:00;3.25;;;2.78;;
4430;SDS011;2228;48.140;11.488;2022-08-01T09:06:29;5.30;;;2.38;;
4430;SDS011;2228;48.140;11.488;2022-08-01T09:08:55;2.90;;;1.75;;
4430;SDS011;2228;48.140;11.488;2022-08-01T09:11:22;2.20;;;1.90;;
4430;SDS011;2228;48.140;11.488;2022-08-01T09:14:03;2.70;;;2.20;;
4430;SDS011;2228;48.140;11.488;2022-08-01T09:16:31;3.40;;;1.93;;
4430;SDS011;2228;48.140;11.488;2022-08-01T09:19:09;1.92;;;1.60;;
4430;SDS011;2228;48.140;11.488;2022-08-01T09:21:39;1.70;;;1.60;;
4430;SDS011;2228;48.140;11.488;2022-08-01T09:24:21;2.22;;;1.70;;
4430;SDS011;2228;48.140;11.488;2022-08-01T09:26:48;5.75;;;2.10;;
4430;SDS011;2228;48.140;11.488;2022-08-01T09:29:18;2.30;;;2.10;;
4430;SDS011;2228;48.140;11.488;2022-08-01T09:31:47;2.13;;;1.92;;
4430;SDS011;2228;48.140;11.488;2022-08-01T09:34:14;2.70;;;1.90;;
4430;SDS011;2228;48.140;11.488;2022-08-01T09:36:49;2.58;;;1.50;;
4430;SDS011;2228;48.140;11.488;2022-08-01T09:39:19;2.75;;;1.60;;
4430;SDS011;2228;48.140;11.488;2022-08-01T09:41:47;1.58;;;1.48;;
4430;SDS011;2228;48.140;11.488;2022-08-01T09:44:14;3.45;;;1.55;;
4430;SDS011;2228;48.140;11.488;2022-08-01T09:46:50;2.70;;;1.63;;
4430;SDS011;2228;48.140;11.488;2022-08-01T09:49:28;2.97;;;1.75;;
4430;SDS011;2228;48.140;11.488;2022-08-01T09:51:59;2.60;;;1.77;;
4430;SDS011;2228;48.140;11.488;2022-08-01T09:54:36;2.35;;;1.60;;
4430;SDS011;2228;48.140;11.488;2022-08-01T09:57:07;2.72;;;1.70;;
4430;SDS011;2228;48.140;11.488;2022-08-01T09:59:36;2.33;;;1.48;;
4430;SDS011;2228;48.140;11.488;2022-08-01T10:02:05;3.38;;;1.58;;
4430;SDS011;2228;48.140;11.488;2022-08-01T10:04:33;2.50;;;1.50;;
4430;SDS011;2228;48.140;11.488;2022-08-01T10:07:04;2.00;;;1.60;;
4430;SDS011;2228;48.140;11.488;2022-08-01T10:09:33;2.63;;;1.45;;
4430;SDS011;2228;48.140;11.488;2022-08-01T10:12:01;1.70;;;1.42;;
4430;SDS011;2228;48.140;11.488;2022-08-01T10:14:30;2.40;;;1.40;;
4430;SDS011;2228;48.140;11.488;2022-08-01T10:16:59;2.53;;;1.63;;
4430;SDS011;2228;48.140;11.488;2022-08-01T10:19:27;1.50;;;1.30;;
4430;SDS011;2228;48.140;11.488;2022-08-01T10:21:57;6.55;;;1.42;;
4430;SDS011;2228;48.140;11.488;2022-08-01T10:24:26;3.40;;;1.30;;
4430;SDS011;2228;48.140;11.488;2022-08-01T10:26:55;2.70;;;1.45;;
4430;SDS011;2228;48.140;11.488;2022-08-01T10:29:28;1.42;;;1.27;;
4430;SDS011;2228;48.140;11.488;2022-08-01T10:32:02;3.10;;;1.20;;
4430;SDS011;2228;48.140;11.488;2022-08-01T10:34:30;3.58;;;1.40;;
4430;SDS011;2228;48.140;11.488;2022-08-01T10:36:59;1.77;;;1.20;;
4430;SDS011;2228;48.140;11.488;2022-08-01T10:39:28;2.45;;;1.30;;
4430;SDS011;2228;48.140;11.488;2022-08-01T10:41:56;2.78;;;1.20;;
4430;SDS011;2228;48.140;11.488;2022-08-01T10:44:24;3.05;;;1.58;;
4430;SDS011;2228;48.140;11.488;2022-08-01T10:46:54;2.80;;;1.70;;
4430;SDS011;2228;48.140;11.488;2022-08-01T10:49:25;2.70;;;1.50;;
4430;SDS011;2228;48.140;11.488;2022-08-01T10:51:54;2.30;;;1.25;;
4430;SDS011;2228;48.140;11.488;2022-08-01T10:54:23;2.90;;;1.63;;
4430;SDS011;2228;48.140;11.488;2022-08-01T10:56:53;1.80;;;1.50;;
4430;SDS011;2228;48.140;11.488;2022-08-01T10:59:22;1.80;;;1.42;;
4430;SDS011;2228;48.140;11.488;2022-08-01T11:01:57;1.98;;;1.40;;
4430;SDS011;2228;48.140;11.488;2022-08-01T11:04:32;1.80;;;1.30;;
4430;SDS011;2228;48.140;11.488;2022-08-01T11:07:08;2.72;;;1.50;;
4430;SDS011;2228;48.140;11.488;2022-08-01T11:09:42;3.92;;;1.33;;
4430;SDS011;2228;48.140;11.488;2022-08-01T11:12:12;2.70;;;1.23;;
4430;SDS011;2228;48.140;11.488;2022-08-01T11:17:54;2.47;;;1.60;;
4430;SDS011;2228;48.140;11.488;2022-08-01T11:20:22;2.88;;;1.50;;
4430;SDS011;2228;48.140;11.488;2022-08-01T11:26:06;1.92;;;1.30;;
4430;SDS011;2228;48.140;11.488;2022-08-01T11:28:42;1.50;;;1.40;;
4430;SDS011;2228;48.140;11.488;2022-08-01T11:31:30;1.30;;;1.20;;
4430;SDS011;2228;48.140;11.488;2022-08-01T11:33:58;1.70;;;1.40;;
4430;SDS011;2228;48.140;11.488;2022-08-01T11:36:27;1.95;;;1.20;;
4430;SDS011;2228;48.140;11.488;2022-08-01T11:41:40;2.10;;;1.27;;
4430;SDS011;2228;48.140;11.488;2022-08-01T11:44:10;1.67;;;1.17;;
4430;SDS011;2228;48.140;11.488;2022-08-01T11:46:48;1.30;;;1.20;;
4430;SDS011;2228;48.140;11.488;2022-08-01T11:49:23;1.30;;;1.20;;
4430;SDS011;2228;48.140;11.488;2022-08-01T11:52:08;1.40;;;1.20;;
4430;SDS011;2228;48.140;11.488;2022-08-01T11:54:37;1.80;;;1.10;;
4430;SDS011;2228;48.140;11.488;2022-08-01T11:57:06;1.42;;;1.17;;
4430;SDS011;2228;48.140;11.488;2022-08-01T11:59:37;1.58;;;1.10;;
4430;SDS011;2228;48.140;11.488;2022-08-01T12:02:14;3.20;;;1.00;;
4430;SDS011;2228;48.140;11.488;2022-08-01T12:04:46;1.30;;;0.98;;
4430;SDS011;2228;48.140;11.488;2022-08-01T12:07:13;1.70;;;1.10;;
4430;SDS011;2228;48.140;11.488;2022-08-01T12:09:41;1.10;;;0.82;;
4430;SDS011;2228;48.140;11.488;2022-08-01T12:12:08;2.00;;;0.95;;
4430;SDS011;2228;48.140;11.488;2022-08-01T12:14:37;1.40;;;1.20;;
4430;SDS011;2228;48.140;11.488;2022-08-01T12:17:04;2.88;;;1.05;;
4430;SDS011;2228;48.140;11.488;2022-08-01T12:19:31;1.83;;;1.10;;
4430;SDS011;2228;48.140;11.488;2022-08-01T12:22:08;1.08;;;0.90;;
4430;SDS011;2228;48.140;11.488;2022-08-01T12:24:37;2.50;;;0.90;;
4430;SDS011;2228;48.140;11.488;2022-08-01T12:27:06;3.30;;;0.90;;
4430;SDS011;2228;48.140;11.488;2022-08-01T12:29:36;1.10;;;0.90;;
4430;SDS011;2228;48.140;11.488;2022-08-01T12:32:13;1.10;;;1.00;;
4430;SDS011;2228;48.140;11.488;2022-08-01T12:34:48;1.40;;;1.00;;
4430;SDS011;2228;48.140;11.488;2022-08-01T12:37:15;1.92;;;0.90;;
4430;SDS011;2228;48.140;11.488;2022-08-01T12:39:43;3.10;;;1.10;;
4430;SDS011;2228;48.140;11.488;2022-08-01T12:42:10;2.30;;;1.00;;
4430;SDS011;2228;48.140;11.488;2022-08-01T12:44:40;1.70;;;0.80;;
4430;SDS011;2228;48.140;11.488;2022-08-01T12:47:10;3.13;;;0.85;;
4430;SDS011;2228;48.140;11.488;2022-08-01T12:49:38;2.20;;;0.98;;
4430;SDS011;2228;48.140;11.488;2022-08-01T12:52:07;3.30;;;1.00;;
4430;SDS011;2228;48.140;11.488;2022-08-01T12:57:26;1.27;;;1.02;;
4430;SDS011;2228;48.140;11.488;2022-08-01T12:59:55;1.00;;;0.90;;
4430;SDS011;2228;48.140;11.488;2022-08-01T13:02:35;0.80;;;0.70;;
4430;SDS011;2228;48.140;11.488;2022-08-01T13:05:02;2.40;;;0.90;;
4430;SDS011;2228;48.140;11.488;2022-08-01T13:07:36;2.30;;;0.80;;
4430;SDS011;2228;48.140;11.488;2022-08-01T13:10:08;1.20;;;0.90;;
4430;SDS011;2228;48.140;11.488;2022-08-01T13:12:35;4.03;;;1.05;;
4430;SDS011;2228;48.140;11.488;2022-08-01T13:15:27;3.20;;;1.00;;
4430;SDS011;2228;48.140;11.488;2022-08-01T13:17:56;2.50;;;1.00;;
4430;SDS011;2228;48.140;11.488;2022-08-01T13:20:28;2.30;;;1.00;;
4430;SDS011;2228;48.140;11.488;2022-08-01T13:23:09;1.63;;;1.27;;
4430;SDS011;2228;48.140;11.488;2022-08-01T13:25:46;3.85;;;1.50;;
4430;SDS011;2228;48.140;11.488;2022-08-01T13:28:15;2.40;;;1.10;;
4430;SDS011;2228;48.140;11.488;2022-08-01T13:30:55;2.00;;;1.20;;
4430;SDS011;2228;48.140;11.488;2022-08-01T13:33:24;2.50;;;1.20;;
4430;SDS011;2228;48.140;11.488;2022-08-01T13:35:51;3.30;;;1.63;;
4430;SDS011;2228;48.140;11.488;2022-08-01T13:38:19;5.10;;;1.40;;
4430;SDS011;2228;48.140;11.488;2022-08-01T13:41:06;2.70;;;1.10;;
4430;SDS011;2228;48.140;11.488;2022-08-01T13:43:33;1.60;;;0.90;;
4430;SDS011;2228;48.140;11.488;2022-08-01T13:46:02;2.70;;;1.08;;
4430;SDS011;2228;48.140;11.488;2022-08-01T13:48:29;3.40;;;1.10;;
4430;SDS011;2228;48.140;11.488;2022-08-01T13:50:57;1.40;;;1.10;;
4430;SDS011;2228;48.140;11.488;2022-08-01T13:53:24;1.73;;;1.10;;
4430;SDS011;2228;48.140;11.488;2022-08-01T13:55:50;2.70;;;1.10;;
4430;SDS011;2228;48.140;11.488;2022-08-01T13:58:17;1.60;;;1.10;;
4430;SDS011;2228;48.140;11.488;2022-08-01T14:00:44;2.75;;;1.20;;
4430;SDS011;2228;48.140;11.488;2022-08-01T14:03:13;2.20;;;1.00;;
4430;SDS011;2228;48.140;11.488;2022-08-01T14:05:41;4.20;;;1.20;;
4430;SDS011;2228;48.140;11.488;2022-08-01T14:08:08;3.80;;;1.30;;
4430;SDS011;2228;48.140;11.488;2022-08-01T14:10:35;2.72;;;1.30;;
4430;SDS011;2228;48.140;11.488;2022-08-01T14:13:02;2.58;;;1.50;;
4430;SDS011;2228;48.140;11.488;2022-08-01T14:15:29;3.60;;;1.70;;
4430;SDS011;2228;48.140;11.488;2022-08-01T14:17:57;4.18;;;1.90;;
4430;SDS011;2228;48.140;11.488;2022-08-01T14:20:25;5.00;;;2.20;;
4430;SDS011;2228;48.140;11.488;2022-08-01T14:22:52;5.40;;;2.08;;
4430;SDS011;2228;48.140;11.488;2022-08-01T14:25:19;2.80;;;1.80;;
4430;SDS011;2228;48.140;11.488;2022-08-01T14:27:46;5.27;;;2.20;;
4430;SDS011;2228;48.140;11.488;2022-08-01T14:30:13;4.72;;;2.60;;
4430;SDS011;2228;48.140;11.488;2022-08-01T14:32:40;7.10;;;3.50;;
4430;SDS011;2228;48.140;11.488;2022-08-01T14:35:07;6.07;;;3.85;;
4430;SDS011;2228;48.140;11.488;2022-08-01T14:37:35;7.85;;;3.85;;
4430;SDS011;2228;48.140;11.488;2022-08-01T14:40:02;8.10;;;3.88;;
4430;SDS011;2228;48.140;11.488;2022-08-01T14:42:33;5.97;;;3.70;;
4430;SDS011;2228;48.140;11.488;2022-08-01T14:45:00;6.87;;;3.50;;
4430;SDS011;2228;48.140;11.488;2022-08-01T14:47:28;7.10;;;3.83;;
4430;SDS011;2228;48.140;11.488;2022-08-01T14:49:55;3.97;;;2.35;;
4430;SDS011;2228;48.140;11.488;2022-08-01T14:52:21;5.25;;;2.50;;
4430;SDS011;2228;48.140;11.488;2022-08-01T14:54:50;3.42;;;2.10;;
4430;SDS011;2228;48.140;11.488;2022-08-01T14:57:16;2.25;;;1.48;;
4430;SDS011;2228;48.140;11.488;2022-08-01T14:59:44;4.63;;;2.00;;
4430;SDS011;2228;48.140;11.488;2022-08-01T15:02:10;7.93;;;1.90;;
4430;SDS011;2228;48.140;11.488;2022-08-01T15:04:41;2.03;;;1.30;;
4430;SDS011;2228;48.140;11.488;2022-08-01T15:07:09;3.60;;;1.80;;
4430;SDS011;2228;48.140;11.488;2022-08-01T15:09:36;2.57;;;1.87;;
4430;SDS011;2228;48.140;11.488;2022-08-01T15:12:04;3.60;;;2.30;;
4430;SDS011;2228;48.140;11.488;2022-08-01T15:14:32;2.45;;;1.90;;
4430;SDS011;2228;48.140;11.488;2022-08-01T15:17:14;4.32;;;1.70;;
4430;SDS011;2228;48.140;11.488;2022-08-01T15:19:41;4.43;;;1.77;;
4430;SDS011;2228;48.140;11.488;2022-08-01T15:22:07;6.05;;;2.25;;
4430;SDS011;2228;48.140;11.488;2022-08-01T15:24:34;4.38;;;2.00;;